Time;durP1;ratioP1;P1;durP2;ratioP2;P2;SDS_P1;SDS_P2;PMS_P1;PMS_P2;Temp;Humidity;BMP_temperature;BMP_pressure;BME280_temperature;BME280_humidity;BME280_pressure;Samples;Min_cycle;Max_cycle;Signal;HPM_P1;HPM_P2
2022/05/28 00:00:58;;;;;;;7.50;3.60;;;16.00;99.90;;;;;;6261446;23;20549;-89
2022/05/28 00:03:29;;;;;;;5.80;3.10;;;15.90;99.90;;;;;;6251961;23;20818;-89
2022/05/28 00:05:59;;;;;;;7.90;3.90;;;16.00;99.90;;;;;;6250724;23;20370;-89
2022/05/28 00:08:29;;;;;;;6.60;3.40;;;16.10;99.90;;;;;;6253554;22;20435;-88
2022/05/28 00:10:59;;;;;;;9.83;3.80;;;16.10;99.90;;;;;;6253991;23;20427;-89
2022/05/28 00:13:33;;;;;;;6.10;3.70;;;15.90;99.90;;;;;;6254747;23;20443;-89
2022/05/28 00:16:00;;;;;;;9.97;4.33;;;15.90;99.90;;;;;;6262658;23;20456;-88
2022/05/28 00:21:16;;;;;;;9.40;4.90;;;15.80;99.90;;;;;;6280912;22;20449;-89
2022/05/28 00:23:59;;;;;;;8.67;4.30;;;15.90;99.90;;;;;;6284157;22;20465;-89
2022/05/28 00:29:22;;;;;;;9.50;4.70;;;15.90;99.90;;;;;;6287204;22;20421;-88
2022/05/28 00:32:03;;;;;;;8.40;4.90;;;15.70;99.90;;;;;;6263489;22;20743;-90
2022/05/28 00:34:40;;;;;;;10.03;4.10;;;15.60;99.90;;;;;;6254696;22;20418;-89
2022/05/28 00:40:42;;;;;;;7.20;3.50;;;15.60;99.90;;;;;;6268092;22;20413;-89
2022/05/28 00:43:49;;;;;;;;;;;;;;;;;;;;;
2022/05/28 00:47:05;;;;;;;11.50;4.30;;;15.30;99.90;;;;;;6253009;23;20424;-89
2022/05/28 00:53:24;;;;;;;9.57;4.70;;;15.40;99.90;;;;;;6261759;22;20939;-89
2022/05/28 00:56:22;;;;;;;7.43;4.60;;;15.30;99.90;;;;;;6250063;23;20973;-89
2022/05/28 01:02:51;;;;;;;28.90;5.07;;;15.30;99.90;;;;;;6236052;22;20900;-89
2022/05/28 01:05:40;;;;;;;10.00;4.13;;;15.60;99.90;;;;;;6199091;22;20513;-89
2022/05/28 01:08:20;;;;;;;7.83;4.50;;;15.40;99.90;;;;;;6249877;23;20435;-88
2022/05/28 01:10:56;;;;;;;9.90;4.37;;;15.30;99.90;;;;;;6259528;22;20440;-89
2022/05/28 01:13:54;;;;;;;7.77;4.27;;;15.20;99.90;;;;;;6253157;22;20407;-89
2022/05/28 01:16:47;;;;;;;9.30;5.27;;;15.30;99.90;;;;;;6252005;23;20411;-89
2022/05/28 01:22:48;;;;;;;10.00;4.10;;;15.30;99.90;;;;;;6267773;22;20409;-89
2022/05/28 01:25:49;;;;;;;5.67;3.10;;;15.40;99.90;;;;;;6259497;23;20405;-89
2022/05/28 01:28:38;;;;;;;8.03;3.90;;;15.20;99.90;;;;;;6247625;23;20422;-90
2022/05/28 01:31:22;;;;;;;9.13;4.30;;;15.30;99.90;;;;;;6246656;23;20955;-89
2022/05/28 01:34:02;;;;;;;13.23;4.57;;;15.10;99.90;;;;;;6251096;23;20754;-89
2022/05/28 01:36:51;;;;;;;8.23;4.00;;;15.30;99.90;;;;;;6249949;23;20410;-89
2022/05/28 01:39:54;;;;;;;10.60;4.03;;;15.10;99.90;;;;;;6229661;22;20459;-89
2022/05/28 01:43:05;;;;;;;9.13;3.60;;;15.00;99.90;;;;;;6250488;23;20421;-89
2022/05/28 01:45:49;;;;;;;11.73;4.00;;;15.00;99.90;;;;;;6130609;23;20444;-89
2022/05/28 01:48:36;;;;;;;13.40;4.47;;;15.00;99.90;;;;;;6134574;23;20397;-89
2022/05/28 01:51:27;;;;;;;6.70;3.20;;;14.90;99.90;;;;;;6221038;23;20429;-89
2022/05/28 01:54:14;;;;;;;12.23;3.87;;;14.70;99.90;;;;;;6248858;23;20421;-89
2022/05/28 01:57:22;;;;;;;9.43;3.60;;;14.80;99.90;;;;;;6253049;23;20463;-88
2022/05/28 02:00:16;;;;;;;9.10;3.97;;;14.60;99.90;;;;;;6250064;22;20473;-88
2022/05/28 02:03:02;;;;;;;7.30;3.10;;;14.60;99.90;;;;;;6258687;23;20395;-88
2022/05/28 02:05:44;;;;;;;7.87;4.10;;;14.60;99.90;;;;;;6252153;23;20757;-88
2022/05/28 02:08:14;;;;;;;10.10;3.07;;;14.50;99.90;;;;;;6247401;23;20407;-89
2022/05/28 02:10:56;;;;;;;9.57;3.70;;;14.50;99.90;;;;;;6250406;22;20434;-88
2022/05/28 02:13:33;;;;;;;9.33;3.70;;;14.60;99.90;;;;;;6250564;23;20402;-89
2022/05/28 02:16:13;;;;;;;9.63;3.33;;;14.40;99.90;;;;;;6248307;23;20409;-89
2022/05/28 02:19:08;;;;;;;9.87;3.67;;;14.40;99.90;;;;;;6248828;22;20388;-90
2022/05/28 02:21:53;;;;;;;6.00;3.33;;;14.50;99.90;;;;;;6250560;23;20418;-89
2022/05/28 02:27:22;;;;;;;10.13;3.50;;;14.50;99.90;;;;;;6249019;23;20413;-89
2022/05/28 02:30:02;;;;;;;8.63;3.27;;;14.50;99.90;;;;;;6248420;22;20411;-89
2022/05/28 02:32:34;;;;;;;5.97;2.93;;;14.50;99.90;;;;;;6249555;23;20446;-89
2022/05/28 02:35:15;;;;;;;11.77;3.47;;;14.40;99.90;;;;;;6249030;23;20373;-89
2022/05/28 02:37:44;;;;;;;7.60;3.27;;;14.40;99.90;;;;;;6248664;23;20958;-89
2022/05/28 02:40:13;;;;;;;7.03;2.50;;;14.20;99.90;;;;;;6248718;22;20763;-89
2022/05/28 02:42:47;;;;;;;10.20;3.10;;;14.20;99.90;;;;;;6249826;23;20421;-89
2022/05/28 02:45:17;;;;;;;11.33;3.87;;;14.00;99.90;;;;;;6252508;23;20359;-89
2022/05/28 02:47:46;;;;;;;11.97;2.93;;;13.90;99.90;;;;;;6274058;22;20373;-88
2022/05/28 02:50:30;;;;;;;6.60;3.30;;;14.00;99.90;;;;;;6267508;22;20468;-88
2022/05/28 02:52:59;;;;;;;8.63;3.80;;;13.90;99.90;;;;;;6247968;23;20408;-89
2022/05/28 02:55:44;;;;;;;9.10;3.33;;;14.00;99.90;;;;;;6249765;23;20469;-89
2022/05/28 02:58:21;;;;;;;12.47;3.30;;;13.80;99.90;;;;;;6254071;23;20381;-89
2022/05/28 03:01:01;;;;;;;8.20;2.90;;;13.90;99.90;;;;;;6251913;23;20495;-89
2022/05/28 03:03:28;;;;;;;11.30;2.63;;;14.00;99.90;;;;;;6251916;23;20386;-89
2022/05/28 03:06:05;;;;;;;8.40;2.60;;;14.10;99.90;;;;;;6248607;23;20426;-89
2022/05/28 03:08:36;;;;;;;9.73;2.83;;;13.60;99.90;;;;;;6248201;22;20387;-89
2022/05/28 03:11:15;;;;;;;10.57;3.27;;;13.50;99.90;;;;;;6248706;23;20772;-89
2022/05/28 03:13:50;;;;;;;13.93;3.70;;;13.50;99.90;;;;;;6248937;22;20418;-88
2022/05/28 03:16:26;;;;;;;7.47;2.50;;;13.50;99.90;;;;;;6248814;23;20402;-89
2022/05/28 03:18:54;;;;;;;6.97;2.97;;;13.50;99.90;;;;;;6249808;22;20427;-88
2022/05/28 03:21:31;;;;;;;6.73;3.20;;;13.50;99.90;;;;;;6263779;23;20341;-89
2022/05/28 03:24:01;;;;;;;6.23;2.77;;;13.50;99.90;;;;;;6274338;22;20417;-89
2022/05/28 03:26:37;;;;;;;6.90;2.40;;;13.50;99.90;;;;;;6259715;23;20406;-89
2022/05/28 03:29:16;;;;;;;12.27;3.57;;;13.50;99.90;;;;;;6248740;22;20440;-89
2022/05/28 03:31:48;;;;;;;13.77;3.00;;;13.40;99.90;;;;;;6247819;23;20438;-89
2022/05/28 03:34:20;;;;;;;7.67;2.70;;;13.30;99.90;;;;;;6247730;23;20394;-88
2022/05/28 03:36:52;;;;;;;11.27;2.57;;;13.40;99.90;;;;;;6248449;23;20399;-89
2022/05/28 03:39:20;;;;;;;9.40;2.67;;;13.40;99.90;;;;;;6247677;22;20451;-89
2022/05/28 03:41:52;;;;;;;10.63;3.07;;;13.20;99.90;;;;;;6250454;23;20374;-88
2022/05/28 03:44:26;;;;;;;7.00;2.60;;;13.20;99.90;;;;;;6249552;23;20443;-89
2022/05/28 03:46:55;;;;;;;7.77;2.40;;;13.40;99.90;;;;;;6252230;23;20449;-88
2022/05/28 03:49:27;;;;;;;9.37;2.50;;;13.50;99.90;;;;;;6249114;22;20447;-89
2022/05/28 03:52:09;;;;;;;9.17;2.80;;;13.30;99.90;;;;;;6249285;22;20434;-89
2022/05/28 03:54:44;;;;;;;8.27;2.90;;;13.20;99.90;;;;;;6263789;23;20376;-89
2022/05/28 03:57:18;;;;;;;9.77;2.80;;;13.00;99.90;;;;;;6271023;22;20368;-88
2022/05/28 03:59:55;;;;;;;11.60;2.93;;;13.20;99.90;;;;;;6275338;22;20419;-88
2022/05/28 04:02:23;;;;;;;7.47;2.90;;;13.10;99.90;;;;;;6272703;22;20420;-88
2022/05/28 04:04:56;;;;;;;6.13;2.33;;;13.00;99.90;;;;;;6266539;23;20395;-88
2022/05/28 04:07:25;;;;;;;6.60;2.73;;;13.20;99.90;;;;;;6258151;23;20378;-88
2022/05/28 04:09:53;;;;;;;7.50;2.67;;;13.30;99.90;;;;;;6257357;22;20899;-88
2022/05/28 04:12:23;;;;;;;12.00;3.50;;;13.30;99.90;;;;;;6248608;23;20448;-88
2022/05/28 04:14:52;;;;;;;7.93;2.60;;;13.10;99.90;;;;;;6249306;23;20422;-88
2022/05/28 04:17:23;;;;;;;7.33;2.97;;;13.20;99.90;;;;;;6249065;23;20481;-88
2022/05/28 04:19:50;;;;;;;5.33;2.40;;;13.00;99.90;;;;;;6248192;22;20524;-88
2022/05/28 04:22:17;;;;;;;8.60;2.30;;;12.90;99.90;;;;;;6248257;23;20402;-88
2022/05/28 04:24:57;;;;;;;9.90;2.93;;;12.90;99.90;;;;;;6256597;23;20397;-88
2022/05/28 04:27:24;;;;;;;12.47;3.50;;;13.00;99.90;;;;;;6253184;23;20370;-89
2022/05/28 04:30:03;;;;;;;11.20;3.83;;;12.70;99.90;;;;;;6252937;22;20426;-89
2022/05/28 04:32:33;;;;;;;9.00;2.77;;;12.60;99.90;;;;;;6252099;22;20418;-89
2022/05/28 04:35:25;;;;;;;8.13;2.77;;;12.60;99.90;;;;;;6261605;23;20464;-88
2022/05/28 04:38:14;;;;;;;8.40;2.70;;;12.60;99.90;;;;;;6259796;23;20402;-89
2022/05/28 04:44:24;;;;;;;10.13;2.97;;;12.60;99.90;;;;;;6210653;23;20446;-88
2022/05/28 04:47:05;;;;;;;8.67;3.13;;;12.80;99.90;;;;;;6228240;23;20883;-89
2022/05/28 04:49:48;;;;;;;10.70;2.80;;;12.80;99.90;;;;;;6218620;23;20389;-88
2022/05/28 04:52:25;;;;;;;10.47;2.70;;;12.70;99.90;;;;;;6231611;23;20487;-88
2022/05/28 04:55:00;;;;;;;9.43;2.77;;;12.70;99.90;;;;;;6229417;23;20379;-88
2022/05/28 04:57:37;;;;;;;8.60;2.27;;;12.80;99.90;;;;;;6233903;23;20481;-88
2022/05/28 05:00:10;;;;;;;5.70;2.10;;;12.80;99.90;;;;;;6225077;23;20425;-89
2022/05/28 05:02:42;;;;;;;6.17;2.50;;;12.90;99.90;;;;;;6236188;23;20405;-89
2022/05/28 05:05:26;;;;;;;9.37;2.43;;;13.10;99.90;;;;;;6226987;23;20389;-88
2022/05/28 05:08:01;;;;;;;15.30;2.93;;;13.20;99.90;;;;;;6218611;23;20379;-88
2022/05/28 05:10:41;;;;;;;7.80;2.77;;;13.30;99.90;;;;;;6229264;22;20407;-88
2022/05/28 05:13:14;;;;;;;10.47;2.87;;;13.20;99.90;;;;;;6243725;22;20378;-88
2022/05/28 05:15:52;;;;;;;9.30;2.40;;;13.30;99.90;;;;;;6220072;23;20393;-89
2022/05/28 05:18:28;;;;;;;8.70;2.53;;;13.30;99.90;;;;;;6221381;23;20377;-88
2022/05/28 05:20:57;;;;;;;11.13;2.80;;;13.50;99.90;;;;;;6219612;23;20453;-89
2022/05/28 05:23:53;;;;;;;8.77;2.70;;;13.50;99.90;;;;;;6216936;23;20432;-89
2022/05/28 05:26:25;;;;;;;12.23;2.97;;;13.60;99.90;;;;;;6217727;23;20386;-89
2022/05/28 05:29:01;;;;;;;7.67;2.90;;;13.60;99.90;;;;;;6218449;23;20452;-89
2022/05/28 05:31:34;;;;;;;9.03;2.80;;;13.60;99.90;;;;;;6217746;23;20422;-89
2022/05/28 05:34:04;;;;;;;7.90;2.90;;;13.70;99.90;;;;;;6217546;23;20410;-89
2022/05/28 05:36:47;;;;;;;12.27;3.47;;;13.30;99.90;;;;;;6218317;23;20439;-89
2022/05/28 05:39:42;;;;;;;10.20;2.80;;;13.40;99.90;;;;;;6219112;23;20439;-89
2022/05/28 05:42:18;;;;;;;9.00;2.90;;;13.30;99.90;;;;;;6218367;23;20378;-89
2022/05/28 05:44:53;;;;;;;10.73;3.97;;;13.40;99.90;;;;;;6218238;23;20411;-89
2022/05/28 05:47:33;;;;;;;11.47;3.07;;;13.50;99.90;;;;;;6217766;23;20373;-89
2022/05/28 05:50:36;;;;;;;10.07;2.40;;;13.30;99.90;;;;;;6219846;23;20549;-89
2022/05/28 05:58:46;;;;;;;7.33;2.50;;;13.60;99.90;;;;;;6202648;23;20754;-89
2022/05/28 06:01:24;;;;;;;13.47;3.10;;;13.80;99.90;;;;;;6220882;23;20413;-89
2022/05/28 06:03:54;;;;;;;7.83;2.70;;;13.70;99.90;;;;;;6219528;23;20463;-89
2022/05/28 06:06:28;;;;;;;8.77;2.90;;;13.50;99.90;;;;;;6229277;23;20435;-89
2022/05/28 06:09:05;;;;;;;12.00;3.40;;;13.60;99.90;;;;;;6228044;22;20386;-89
2022/05/28 06:11:51;;;;;;;7.93;2.50;;;13.70;99.90;;;;;;6240462;23;20385;-88
2022/05/28 06:14:27;;;;;;;10.83;2.50;;;13.90;99.90;;;;;;6234482;23;20417;-88
2022/05/28 06:16:55;;;;;;;8.17;2.43;;;13.90;99.90;;;;;;6238813;23;20403;-89
2022/05/28 06:19:23;;;;;;;7.33;2.50;;;13.80;99.90;;;;;;6225516;22;20439;-87
2022/05/28 06:21:50;;;;;;;7.60;2.30;;;13.80;99.90;;;;;;6223492;23;20483;-86
2022/05/28 06:24:17;;;;;;;7.80;2.53;;;13.80;99.90;;;;;;6230327;23;20873;-85
2022/05/28 06:26:44;;;;;;;7.70;2.37;;;13.80;99.90;;;;;;6242580;23;20385;-86
2022/05/28 06:29:12;;;;;;;7.03;2.03;;;13.70;99.90;;;;;;6236525;23;20410;-86
2022/05/28 06:31:39;;;;;;;13.00;2.20;;;13.60;99.90;;;;;;6204678;23;20423;-83
2022/05/28 06:34:06;;;;;;;4.30;1.83;;;13.80;99.90;;;;;;6211982;23;20383;-84
2022/05/28 06:36:34;;;;;;;4.20;1.87;;;13.80;99.90;;;;;;6205394;23;20394;-84
2022/05/28 06:39:01;;;;;;;6.23;1.60;;;13.90;99.70;;;;;;6193521;23;20464;-85
2022/05/28 06:41:28;;;;;;;5.40;1.40;;;14.00;99.30;;;;;;6196138;23;20445;-84
2022/05/28 06:43:55;;;;;;;7.93;2.10;;;14.00;98.60;;;;;;6194899;23;20478;-86
2022/05/28 06:46:22;;;;;;;7.33;1.57;;;14.00;97.90;;;;;;6193849;23;20447;-86
2022/05/28 06:48:48;;;;;;;6.30;2.30;;;14.00;97.20;;;;;;6194419;23;20414;-84
2022/05/28 06:51:15;;;;;;;5.07;1.40;;;13.90;97.60;;;;;;6208762;23;20382;-86
2022/05/28 06:53:47;;;;;;;5.53;1.93;;;14.00;97.50;;;;;;6209524;23;20398;-86
2022/05/28 06:56:15;;;;;;;5.30;1.47;;;14.00;97.60;;;;;;6195381;23;20391;-83
2022/05/28 06:58:43;;;;;;;7.30;2.17;;;14.00;97.40;;;;;;6191799;23;20706;-85
2022/05/28 07:01:15;;;;;;;4.90;1.63;;;14.00;97.70;;;;;;6205999;23;20429;-82
2022/05/28 07:03:43;;;;;;;6.23;1.83;;;14.10;97.10;;;;;;6213236;23;20403;-86
2022/05/28 07:06:11;;;;;;;5.90;1.80;;;14.00;97.50;;;;;;6207041;23;20501;-85
2022/05/28 07:08:38;;;;;;;6.07;1.50;;;14.10;97.70;;;;;;6195595;23;20390;-86
2022/05/28 07:11:06;;;;;;;4.93;1.33;;;14.00;97.70;;;;;;6193271;23;20494;-86
2022/05/28 07:13:35;;;;;;;5.50;1.67;;;14.10;97.20;;;;;;6193652;23;20392;-85
2022/05/28 07:16:03;;;;;;;6.37;1.63;;;14.00;96.10;;;;;;6193924;23;20375;-86
2022/05/28 07:18:30;;;;;;;6.60;1.83;;;14.00;96.40;;;;;;6192430;23;20405;-86
2022/05/28 07:20:57;;;;;;;5.00;1.53;;;14.10;96.40;;;;;;6194327;23;20836;-85
2022/05/28 07:23:27;;;;;;;6.87;1.33;;;14.20;96.60;;;;;;6196230;23;20390;-85
2022/05/28 07:25:59;;;;;;;6.20;1.40;;;14.00;96.40;;;;;;6198726;23;20391;-86
2022/05/28 07:28:29;;;;;;;5.97;1.73;;;14.10;96.40;;;;;;6199013;23;20412;-87
2022/05/28 07:30:58;;;;;;;5.77;1.80;;;14.00;97.00;;;;;;6200339;23;20486;-87
2022/05/28 07:33:25;;;;;;;6.83;1.60;;;14.20;96.30;;;;;;6193997;23;20395;-86
2022/05/28 07:35:53;;;;;;;4.40;1.43;;;14.30;96.10;;;;;;6192870;23;20875;-87
2022/05/28 07:38:21;;;;;;;10.90;2.03;;;14.40;95.80;;;;;;6199879;23;20395;-85
2022/05/28 07:40:48;;;;;;;5.20;2.00;;;14.50;96.20;;;;;;6210943;23;20445;-84
2022/05/28 07:43:15;;;;;;;6.33;1.50;;;14.70;96.20;;;;;;6210886;23;20413;-86
2022/05/28 07:45:44;;;;;;;7.60;2.07;;;14.70;94.40;;;;;;6209989;23;20422;-86
2022/05/28 07:48:12;;;;;;;5.33;1.70;;;14.80;95.20;;;;;;6203050;23;20435;-86
2022/05/28 07:50:39;;;;;;;7.73;1.80;;;14.90;95.10;;;;;;6203478;23;20432;-86
2022/05/28 07:53:08;;;;;;;4.70;1.63;;;15.00;94.90;;;;;;6208467;23;20396;-85
2022/05/28 07:55:35;;;;;;;3.97;1.50;;;15.00;94.20;;;;;;6214085;23;20408;-86
2022/05/28 07:58:06;;;;;;;4.80;1.50;;;15.00;94.00;;;;;;6212951;23;20390;-83
2022/05/28 08:00:33;;;;;;;5.23;1.30;;;14.90;93.50;;;;;;6205750;23;20482;-84
2022/05/28 08:03:01;;;;;;;3.67;1.27;;;15.10;93.40;;;;;;6212382;23;20412;-84
2022/05/28 08:05:29;;;;;;;4.53;1.50;;;15.10;93.00;;;;;;6202596;23;20414;-87
2022/05/28 08:07:56;;;;;;;5.97;1.50;;;15.00;91.40;;;;;;6191925;23;20433;-87
2022/05/28 08:10:23;;;;;;;3.43;0.93;;;15.20;92.10;;;;;;6191889;23;20461;-87
2022/05/28 08:12:50;;;;;;;6.60;1.40;;;15.20;92.50;;;;;;6192894;23;20390;-83
2022/05/28 08:15:17;;;;;;;6.00;1.40;;;15.10;92.10;;;;;;6194891;23;20451;-86
2022/05/28 08:17:44;;;;;;;5.50;1.70;;;15.10;92.30;;;;;;6194902;23;20447;-85
2022/05/28 08:20:13;;;;;;;6.10;2.13;;;15.20;91.20;;;;;;6194366;23;20764;-88
2022/05/28 08:25:24;;;;;;;5.83;1.50;;;15.30;91.00;;;;;;6209499;23;20381;-85
2022/05/28 08:27:51;;;;;;;5.60;1.50;;;15.40;91.30;;;;;;6202447;23;20434;-85
2022/05/28 08:30:18;;;;;;;5.00;1.60;;;15.60;91.70;;;;;;6206970;23;20395;-85
2022/05/28 08:32:45;;;;;;;7.13;1.70;;;15.60;91.80;;;;;;6203524;23;20399;-86
2022/05/28 08:35:13;;;;;;;4.20;1.60;;;15.70;91.70;;;;;;6198973;23;20456;-86
2022/05/28 08:37:41;;;;;;;5.63;1.70;;;16.00;91.30;;;;;;6192933;23;20451;-85
2022/05/28 08:40:10;;;;;;;20.40;2.53;;;16.30;90.90;;;;;;6196924;23;20406;-84
2022/05/28 08:42:38;;;;;;;5.87;1.57;;;16.50;90.90;;;;;;6199830;23;20450;-85
2022/05/28 08:45:07;;;;;;;5.10;1.53;;;16.60;91.20;;;;;;6201325;23;20407;-86
2022/05/28 08:47:37;;;;;;;5.90;1.63;;;16.90;90.60;;;;;;6201891;23;20842;-86
2022/05/28 08:50:07;;;;;;;4.37;1.20;;;16.80;90.20;;;;;;6195634;23;20512;-86
2022/05/28 08:52:43;;;;;;;4.30;1.47;;;16.80;90.50;;;;;;6195370;23;20408;-85
2022/05/28 08:55:13;;;;;;;4.70;1.70;;;16.40;89.50;;;;;;6196920;23;20396;-85
2022/05/28 08:57:57;;;;;;;5.53;1.63;;;15.90;90.60;;;;;;6197360;23;20509;-85
2022/05/28 09:00:32;;;;;;;6.63;1.90;;;15.90;90.90;;;;;;6196588;23;20470;-86
2022/05/28 09:03:06;;;;;;;4.20;1.90;;;15.90;92.40;;;;;;6193504;23;20400;-85
2022/05/28 09:05:38;;;;;;;8.03;2.00;;;16.00;91.30;;;;;;6193830;23;20393;-87
2022/05/28 09:08:09;;;;;;;4.47;1.10;;;16.00;91.70;;;;;;6193173;23;20399;-86
2022/05/28 09:10:44;;;;;;;13.10;1.80;;;16.20;91.40;;;;;;6192543;23;20422;-86
2022/05/28 09:13:25;;;;;;;6.80;2.00;;;16.20;91.60;;;;;;6199255;23;20379;-87
2022/05/28 09:15:53;;;;;;;4.43;1.63;;;16.50;90.50;;;;;;6209730;23;20382;-87
2022/05/28 09:18:23;;;;;;;8.13;2.13;;;16.60;90.60;;;;;;6212268;23;20443;-86
2022/05/28 09:20:50;;;;;;;4.23;1.80;;;16.50;90.30;;;;;;6209865;23;20427;-85
2022/05/28 09:23:20;;;;;;;6.07;2.20;;;16.60;90.40;;;;;;6211062;23;20400;-85
2022/05/28 09:25:50;;;;;;;4.43;1.47;;;16.60;89.70;;;;;;6205824;23;20392;-85
2022/05/28 09:28:30;;;;;;;5.97;1.60;;;16.70;90.20;;;;;;6201989;23;20372;-86
2022/05/28 09:31:05;;;;;;;3.63;1.30;;;16.70;89.70;;;;;;6195288;23;20442;-86
2022/05/28 09:34:04;;;;;;;5.30;1.40;;;16.30;89.50;;;;;;6195948;23;20400;-86
2022/05/28 09:36:40;;;;;;;10.40;1.77;;;15.90;90.30;;;;;;6194582;23;20426;-85
2022/05/28 09:39:19;;;;;;;6.10;1.80;;;16.00;91.00;;;;;;6194219;23;20408;-85
2022/05/28 09:41:57;;;;;;;6.63;2.07;;;16.30;90.90;;;;;;6194951;23;20501;-85
2022/05/28 09:44:36;;;;;;;7.50;1.33;;;16.50;90.40;;;;;;6194299;23;20379;-87
2022/05/28 09:47:08;;;;;;;5.80;1.93;;;16.70;89.80;;;;;;6193257;23;20421;-88
2022/05/28 09:49:46;;;;;;;6.97;1.43;;;16.70;90.50;;;;;;6202034;23;20433;-84
2022/05/28 09:52:13;;;;;;;7.43;1.60;;;16.60;90.10;;;;;;6191888;23;20393;-85
2022/05/28 09:54:40;;;;;;;4.40;1.40;;;16.80;90.10;;;;;;6192312;23;20388;-86
2022/05/28 09:57:10;;;;;;;5.53;1.30;;;16.90;89.30;;;;;;6196570;23;20440;-86
2022/05/28 09:59:52;;;;;;;6.00;1.40;;;16.80;86.70;;;;;;6205337;23;20458;-86
2022/05/28 10:02:21;;;;;;;7.73;1.90;;;16.90;86.70;;;;;;6194025;23;20436;-86
2022/05/28 10:04:52;;;;;;;5.60;1.40;;;16.70;89.30;;;;;;6195336;23;20417;-87
2022/05/28 10:07:31;;;;;;;5.87;1.80;;;16.80;88.20;;;;;;6194737;23;20390;-86
2022/05/28 10:10:00;;;;;;;3.37;1.43;;;17.10;87.30;;;;;;6211955;23;20420;-84
2022/05/28 10:12:29;;;;;;;8.60;1.50;;;17.30;85.10;;;;;;6212300;23;20391;-85
2022/05/28 10:15:05;;;;;;;4.97;1.60;;;17.40;83.60;;;;;;6212113;23;20416;-86
2022/05/28 10:17:34;;;;;;;5.23;1.87;;;17.40;81.70;;;;;;6205484;23;20898;-86
2022/05/28 10:20:04;;;;;;;4.47;1.53;;;17.30;82.40;;;;;;6208390;23;20447;-85
2022/05/28 10:22:32;;;;;;;4.10;1.10;;;17.20;83.10;;;;;;6199194;23;20464;-85
2022/05/28 10:25:03;;;;;;;4.60;1.40;;;17.50;84.60;;;;;;6192462;23;20873;-86
2022/05/28 10:27:37;;;;;;;3.90;1.40;;;17.30;84.50;;;;;;6193202;23;20430;-85
2022/05/28 10:30:09;;;;;;;3.50;1.07;;;17.50;81.20;;;;;;6194048;23;20411;-86
2022/05/28 10:32:39;;;;;;;4.60;1.53;;;17.50;81.00;;;;;;6195446;23;20422;-85
2022/05/28 10:35:13;;;;;;;5.33;1.30;;;17.40;82.50;;;;;;6196813;23;20371;-87
2022/05/28 10:37:40;;;;;;;6.23;2.10;;;17.50;83.90;;;;;;6193414;23;20404;-85
2022/05/28 10:40:17;;;;;;;6.77;1.70;;;17.50;84.60;;;;;;6196039;23;20811;-86
2022/05/28 10:42:44;;;;;;;7.93;1.60;;;17.50;85.00;;;;;;6200379;23;20498;-87
2022/05/28 10:45:12;;;;;;;5.83;1.50;;;17.30;84.90;;;;;;6198016;23;20794;-86
2022/05/28 10:48:06;;;;;;;4.80;1.67;;;17.30;85.90;;;;;;6198224;23;20421;-87
2022/05/28 10:50:43;;;;;;;5.17;1.83;;;17.20;85.10;;;;;;6197702;23;20460;-85
2022/05/28 10:53:21;;;;;;;2.60;0.80;;;17.10;86.60;;;;;;6197590;23;20471;-86
2022/05/28 10:56:06;;;;;;;5.23;1.50;;;16.70;87.90;;;;;;6197666;23;20396;-86
2022/05/28 10:58:50;;;;;;;5.20;1.87;;;16.70;88.50;;;;;;6198096;23;20470;-87
2022/05/28 11:01:39;;;;;;;6.83;1.70;;;16.70;87.40;;;;;;6197894;23;20784;-86
2022/05/28 11:04:24;;;;;;;4.30;1.60;;;17.00;86.50;;;;;;6199916;23;20380;-87
2022/05/28 11:07:13;;;;;;;5.83;1.80;;;17.20;83.50;;;;;;6203778;23;20393;-86
2022/05/28 11:09:50;;;;;;;9.70;2.37;;;17.20;82.70;;;;;;6200219;23;20437;-85
2022/05/28 11:12:40;;;;;;;4.00;1.50;;;17.50;81.80;;;;;;6203101;23;20381;-85
2022/05/28 11:15:24;;;;;;;5.33;1.80;;;17.60;80.20;;;;;;6203150;23;20436;-85
2022/05/28 11:18:11;;;;;;;4.97;1.70;;;17.50;80.90;;;;;;6202090;23;20387;-85
2022/05/28 11:20:46;;;;;;;3.90;1.50;;;17.80;78.80;;;;;;6197316;23;20449;-85
2022/05/28 11:23:47;;;;;;;4.40;1.40;;;17.90;78.80;;;;;;6198277;23;20469;-86
2022/05/28 11:26:24;;;;;;;4.70;1.83;;;18.00;78.40;;;;;;6159634;23;20452;-86
2022/05/28 11:29:07;;;;;;;3.93;1.73;;;17.80;78.60;;;;;;6199639;23;20375;-85
2022/05/28 11:31:41;;;;;;;5.47;1.50;;;17.90;78.70;;;;;;6211743;23;20401;-86
2022/05/28 11:34:13;;;;;;;7.53;2.00;;;18.00;77.20;;;;;;6206035;23;20404;-85
2022/05/28 11:36:45;;;;;;;4.37;1.40;;;18.10;78.30;;;;;;6202724;23;20425;-85
2022/05/28 11:39:19;;;;;;;5.43;1.30;;;18.10;72.70;;;;;;6202689;23;20800;-87
2022/05/28 11:41:53;;;;;;;4.47;1.30;;;18.00;70.70;;;;;;6203496;23;20476;-85
2022/05/28 11:44:30;;;;;;;5.10;1.93;;;17.80;72.90;;;;;;6196981;23;20399;-86
2022/05/28 11:47:01;;;;;;;4.93;1.70;;;17.80;73.90;;;;;;6198694;23;20497;-86
2022/05/28 11:52:31;;;;;;;4.37;1.73;;;18.10;73.80;;;;;;6198246;23;20838;-86
2022/05/28 11:55:06;;;;;;;4.20;1.80;;;18.30;70.50;;;;;;6205457;23;20392;-86
2022/05/28 11:57:39;;;;;;;6.33;1.40;;;18.20;71.60;;;;;;6201387;23;20462;-86
2022/05/28 12:00:10;;;;;;;6.07;2.70;;;18.30;72.00;;;;;;6204973;23;20434;-86
2022/05/28 12:02:42;;;;;;;6.37;1.93;;;18.50;71.60;;;;;;6209250;23;20501;-86
2022/05/28 12:05:21;;;;;;;3.43;1.40;;;18.80;71.00;;;;;;6206040;23;20394;-86
2022/05/28 12:07:55;;;;;;;7.83;1.47;;;18.60;68.00;;;;;;6211266;23;20398;-82
2022/05/28 12:10:47;;;;;;;4.20;1.83;;;18.10;68.40;;;;;;6207023;23;20436;-84
2022/05/28 12:13:31;;;;;;;3.83;1.37;;;17.80;69.60;;;;;;6210563;23;20424;-85
2022/05/28 12:16:13;;;;;;;5.67;2.37;;;17.90;69.80;;;;;;6202530;23;20425;-84
2022/05/28 12:18:43;;;;;;;6.67;1.60;;;18.30;69.60;;;;;;6196941;23;20415;-85
2022/05/28 12:21:29;;;;;;;4.50;1.60;;;18.50;68.60;;;;;;6207059;22;20465;-89
2022/05/28 12:25:19;;;;;;;;;;;;;;;;;;;;;
2022/05/28 12:31:55;;;;;;;;;;;;;;;;;;;;;
2022/05/28 12:34:30;;;;;;;3.57;1.33;;;17.80;73.40;;;;;;6099984;23;20415;-87
2022/05/28 12:37:02;;;;;;;6.77;1.87;;;17.80;73.90;;;;;;6242212;23;20390;-87
2022/05/28 12:42:51;;;;;;;6.83;2.33;;;17.60;75.00;;;;;;6229331;23;20446;-89
2022/05/28 12:45:38;;;;;;;7.40;4.87;;;17.90;75.20;;;;;;6239065;23;20364;-88
2022/05/28 12:48:22;;;;;;;4.70;1.50;;;18.20;74.70;;;;;;6223523;23;20412;-89
2022/05/28 12:51:07;;;;;;;4.17;1.43;;;18.60;73.60;;;;;;6221118;23;20456;-87
2022/05/28 12:53:50;;;;;;;6.93;2.00;;;18.50;71.40;;;;;;6222939;23;20698;-88
2022/05/28 12:56:30;;;;;;;4.60;1.30;;;18.50;72.80;;;;;;6224390;23;20479;-88
2022/05/28 12:59:30;;;;;;;4.30;1.73;;;18.00;74.10;;;;;;6227229;23;20408;-89
2022/05/28 13:02:11;;;;;;;5.77;2.00;;;17.90;75.00;;;;;;6227708;23;20441;-88
2022/05/28 13:04:50;;;;;;;6.13;2.00;;;17.90;75.60;;;;;;6222326;23;20464;-88
2022/05/28 13:07:32;;;;;;;8.37;2.30;;;18.20;75.20;;;;;;6220640;23;20870;-88
2022/05/28 13:10:21;;;;;;;5.10;1.77;;;18.00;76.10;;;;;;6231361;23;20444;-88
2022/05/28 13:12:55;;;;;;;4.50;1.50;;;18.20;75.60;;;;;;6224881;23;20421;-89
2022/05/28 13:16:00;;;;;;;6.37;2.20;;;18.10;75.80;;;;;;6233487;23;20423;-88
2022/05/28 13:18:41;;;;;;;5.70;1.87;;;18.30;75.80;;;;;;6240893;23;20382;-88
2022/05/28 13:21:30;;;;;;;6.23;1.30;;;18.20;74.00;;;;;;6221978;23;20451;-89
2022/05/28 13:24:27;;;;;;;5.57;1.73;;;18.20;73.70;;;;;;6223538;23;20465;-89
2022/05/28 13:27:26;;;;;;;5.40;1.60;;;18.10;72.50;;;;;;6224418;23;20429;-89
2022/05/28 13:30:12;;;;;;;5.40;1.50;;;18.40;72.20;;;;;;6223912;23;20393;-88
2022/05/28 13:32:55;;;;;;;5.10;1.53;;;18.60;71.10;;;;;;6226947;23;20407;-89
2022/05/28 13:35:56;;;;;;;21.13;2.30;;;18.90;70.60;;;;;;6232028;23;20408;-90
2022/05/28 13:41:35;;;;;;;5.00;2.03;;;19.10;71.10;;;;;;6225987;23;20439;-89
2022/05/28 13:44:17;;;;;;;6.47;1.87;;;19.20;68.40;;;;;;6233780;23;20425;-88
2022/05/28 13:46:48;;;;;;;6.20;2.90;;;18.90;65.90;;;;;;6236757;23;20394;-88
2022/05/28 13:49:21;;;;;;;5.47;2.10;;;18.80;66.60;;;;;;6228467;23;20448;-90
2022/05/28 13:51:57;;;;;;;5.13;1.90;;;19.20;67.90;;;;;;6220444;23;20498;-90
2022/05/28 13:54:26;;;;;;;4.00;1.20;;;19.10;65.50;;;;;;6225766;23;20420;-88
2022/05/28 13:57:12;;;;;;;4.80;2.10;;;18.80;66.60;;;;;;6226673;23;20429;-89
2022/05/28 13:59:56;;;;;;;6.20;1.60;;;18.60;68.30;;;;;;6224784;23;20825;-88
2022/05/28 14:02:27;;;;;;;5.40;1.57;;;18.40;66.40;;;;;;6224963;23;20451;-88
2022/05/28 14:05:01;;;;;;;4.10;1.60;;;18.40;66.30;;;;;;6237745;23;20400;-89
2022/05/28 14:07:33;;;;;;;5.93;1.80;;;18.50;65.90;;;;;;6224217;23;20381;-89
2022/05/28 14:10:22;;;;;;;4.17;1.40;;;18.70;65.50;;;;;;6236668;23;20424;-86
2022/05/28 14:12:54;;;;;;;5.07;1.53;;;19.00;64.80;;;;;;6237744;23;20439;-89
2022/05/28 14:15:32;;;;;;;5.03;1.97;;;19.30;63.70;;;;;;6225218;23;20413;-89
2022/05/28 14:18:02;;;;;;;4.17;1.60;;;19.60;62.50;;;;;;6224688;23;20416;-88
2022/05/28 14:22:59;;;;;;;5.00;1.93;;;19.30;61.80;;;;;;6252098;22;20458;-88
2022/05/28 14:25:41;;;;;;;6.17;1.80;;;19.10;62.40;;;;;;6260970;23;20205;-90